createdAt,value
2019-04-11T00:00:39.636Z,35.90
2019-04-11T00:03:09.271Z,33.90
2019-04-11T00:05:39.095Z,35.40
2019-04-11T00:08:08.446Z,39.70
2019-04-11T00:10:37.905Z,35.80
2019-04-11T00:13:17.382Z,36.00
2019-04-11T00:15:37.548Z,33.40
2019-04-11T00:18:08.268Z,33.10
2019-04-11T00:20:37.565Z,35.30
2019-04-11T00:23:08.029Z,38.50
2019-04-11T00:25:38.099Z,37.20
2019-04-11T00:28:07.787Z,37.40
2019-04-11T00:30:37.375Z,37.50
2019-04-11T00:33:07.774Z,36.70
2019-04-11T00:35:38.030Z,36.40
2019-04-11T00:38:07.747Z,33.00
2019-04-11T00:40:37.427Z,36.70
2019-04-11T00:43:07.363Z,39.40
2019-04-11T00:45:36.448Z,34.00
2019-04-11T00:48:05.826Z,35.60
2019-04-11T00:50:35.346Z,33.10
2019-04-11T00:53:05.510Z,35.70
2019-04-11T00:55:35.620Z,35.10
2019-04-11T00:58:05.558Z,38.30
2019-04-11T01:00:35.498Z,39.60
2019-04-11T01:03:06.431Z,36.70
2019-04-11T01:05:35.820Z,35.80
2019-04-11T01:08:05.315Z,38.70
2019-04-11T01:10:34.683Z,34.70
2019-04-11T01:13:05.074Z,34.30
2019-04-11T01:15:34.392Z,31.80
2019-04-11T01:18:04.243Z,32.80
2019-04-11T01:20:33.499Z,33.40
2019-04-11T01:23:03.062Z,36.20
2019-04-11T01:25:32.679Z,35.90
2019-04-11T01:28:02.979Z,35.70
2019-04-11T01:30:41.487Z,34.60
2019-04-11T01:33:11.034Z,37.90
2019-04-11T01:35:41.602Z,34.10
2019-04-11T01:38:11.033Z,35.60
2019-04-11T01:40:40.353Z,37.60
2019-04-11T01:43:09.719Z,35.90
2019-04-11T01:45:39.918Z,38.00
2019-04-11T01:48:11.141Z,37.40
2019-04-11T01:50:43.223Z,36.80
2019-04-11T01:53:13.046Z,37.20
2019-04-11T01:55:43.428Z,35.90
2019-04-11T01:58:12.576Z,36.40
2019-04-11T02:00:52.558Z,35.70
2019-04-11T02:03:27.461Z,37.30
2019-04-11T02:05:57.093Z,37.70
2019-04-11T02:08:28.200Z,37.00
2019-04-11T02:10:57.371Z,38.50
2019-04-11T02:13:26.503Z,37.80
2019-04-11T02:15:57.275Z,39.40
2019-04-11T02:18:27.590Z,39.70
2019-04-11T02:20:57.626Z,40.80
2019-04-11T02:23:28.868Z,39.70
2019-04-11T02:26:10.130Z,39.50
2019-04-11T02:28:41.194Z,40.20
2019-04-11T02:31:11.699Z,41.20
2019-04-11T02:33:41.433Z,43.80
2019-04-11T02:36:12.229Z,45.70
2019-04-11T02:38:41.734Z,46.30
2019-04-11T02:41:14.052Z,46.40
2019-04-11T02:43:44.267Z,46.30
2019-04-11T02:48:44.808Z,46.30
2019-04-11T02:51:14.552Z,46.30
2019-04-11T02:53:45.173Z,47.20
2019-04-11T02:56:14.908Z,48.30
2019-04-11T02:58:44.956Z,52.20
2019-04-11T03:01:15.599Z,51.00
2019-04-11T03:03:45.551Z,52.00
2019-04-11T03:06:15.240Z,52.30
2019-04-11T03:08:46.382Z,54.60
2019-04-11T03:11:16.758Z,55.00
2019-04-11T03:13:50.349Z,54.90
2019-04-11T03:16:32.641Z,55.30
2019-04-11T03:19:08.514Z,56.40
2019-04-11T03:21:23.527Z,57.50
2019-04-11T03:23:52.667Z,58.30
2019-04-11T03:26:22.817Z,58.20
2019-04-11T03:28:56.532Z,58.80
2019-04-11T03:32:08.301Z,59.80
2019-04-11T03:34:39.438Z,60.30
2019-04-11T03:39:15.145Z,61.70
2019-04-11T03:41:44.072Z,61.20
2019-04-11T03:44:04.295Z,60.60
2019-04-11T03:46:48.350Z,61.30
2019-04-11T03:49:16.478Z,61.50
2019-04-11T03:51:33.835Z,61.20
2019-04-11T03:54:04.861Z,61.80
2019-04-11T03:56:35.085Z,61.60
2019-04-11T03:59:06.028Z,61.00
2019-04-11T04:01:35.579Z,61.00
2019-04-11T04:04:06.404Z,61.40
2019-04-11T04:06:37.218Z,61.50
2019-04-11T04:09:08.797Z,61.40
2019-04-11T04:11:40.870Z,60.60
2019-04-11T04:14:28.470Z,62.70
2019-04-11T04:17:17.082Z,61.70
2019-04-11T04:19:54.288Z,61.30
2019-04-11T04:22:27.280Z,61.10
2019-04-11T04:24:56.926Z,60.90
2019-04-11T04:27:28.114Z,61.30
2019-04-11T04:29:59.946Z,61.40
2019-04-11T04:32:30.258Z,60.90
2019-04-11T04:35:01.195Z,61.30
2019-04-11T04:37:31.890Z,61.50
2019-04-11T04:40:18.212Z,62.00
2019-04-11T04:42:40.394Z,62.80
2019-04-11T04:45:07.903Z,62.40
2019-04-11T04:47:46.510Z,63.30
2019-04-11T04:50:08.793Z,62.80
2019-04-11T04:52:38.352Z,63.60
2019-04-11T04:55:08.613Z,63.80
2019-04-11T04:57:37.979Z,64.40
2019-04-11T05:00:09.192Z,63.90
2019-04-11T05:02:39.754Z,65.40
2019-04-11T05:05:11.070Z,65.80
2019-04-11T05:07:42.154Z,67.00
2019-04-11T05:10:11.243Z,66.70
2019-04-11T05:12:41.834Z,67.30
2019-04-11T05:15:12.184Z,67.60
2019-04-11T05:17:42.427Z,68.60
2019-04-11T05:20:12.727Z,69.00
2019-04-11T05:22:42.077Z,69.60
2019-04-11T05:25:12.526Z,70.30
2019-04-11T05:27:41.963Z,69.50
2019-04-11T05:30:11.343Z,70.90
2019-04-11T05:32:41.651Z,71.30
2019-04-11T05:35:11.137Z,72.00
2019-04-11T05:37:40.170Z,70.60
2019-04-11T05:40:10.387Z,72.40
2019-04-11T05:42:39.718Z,72.00
2019-04-11T05:45:15.694Z,72.90
2019-04-11T05:47:41.131Z,73.20
2019-04-11T05:50:13.722Z,72.50
2019-04-11T05:52:42.650Z,72.90
2019-04-11T05:55:13.791Z,73.00
2019-04-11T05:57:44.890Z,72.20
2019-04-11T06:00:19.373Z,72.70
2019-04-11T06:02:51.145Z,73.00
2019-04-11T06:05:29.629Z,73.60
2019-04-11T06:07:57.959Z,74.00
2019-04-11T06:10:28.810Z,74.30
2019-04-11T06:13:18.567Z,74.10
2019-04-11T06:15:49.837Z,73.70
2019-04-11T06:18:33.674Z,75.30
2019-04-11T06:21:18.520Z,76.50
2019-04-11T06:23:51.736Z,77.30
2019-04-11T06:26:39.134Z,76.10
2019-04-11T06:29:27.968Z,78.30
2019-04-11T06:32:14.608Z,78.70
2019-04-11T06:34:57.713Z,79.60
2019-04-11T06:37:45.708Z,79.30
2019-04-11T06:40:20.118Z,80.50
2019-04-11T06:43:03.615Z,81.50
2019-04-11T06:45:34.253Z,81.50
2019-04-11T06:48:25.997Z,82.20
2019-04-11T06:50:57.589Z,82.40
2019-04-11T06:53:30.076Z,82.60
2019-04-11T06:56:10.445Z,83.00
2019-04-11T06:58:41.206Z,83.70
2019-04-11T07:01:11.973Z,83.70
2019-04-11T07:03:46.870Z,83.90
2019-04-11T07:06:17.685Z,83.80
2019-04-11T07:08:51.902Z,84.20
2019-04-11T07:11:38.413Z,84.80
2019-04-11T07:14:15.886Z,85.20
2019-04-11T07:17:07.165Z,85.10
2019-04-11T07:19:35.917Z,85.30
2019-04-11T07:22:25.164Z,85.40
2019-04-11T07:25:12.885Z,85.50
2019-04-11T07:27:43.627Z,86.00
2019-04-11T07:30:31.374Z,85.90
2019-04-11T07:33:02.194Z,85.90
2019-04-11T07:35:34.246Z,86.50
2019-04-11T07:38:03.395Z,86.80
2019-04-11T07:40:43.111Z,87.30
2019-04-11T07:43:13.849Z,87.50
2019-04-11T07:45:44.975Z,87.60
2019-04-11T07:48:15.710Z,87.70
2019-04-11T07:50:45.031Z,87.80
2019-04-11T07:53:15.869Z,87.40
2019-04-11T07:55:46.516Z,87.50
2019-04-11T07:58:26.819Z,87.60
2019-04-11T08:01:10.402Z,87.60
2019-04-11T08:03:41.607Z,87.80
2019-04-11T08:06:28.826Z,88.80
2019-04-11T08:09:18.088Z,88.40
2019-04-11T08:11:49.799Z,88.70
2019-04-11T08:14:37.064Z,89.20
2019-04-11T08:17:27.114Z,89.40
2019-04-11T08:20:05.675Z,90.00
2019-04-11T08:22:36.571Z,90.10
2019-04-11T08:25:20.905Z,90.20
2019-04-11T08:28:01.288Z,90.10
2019-04-11T08:30:33.074Z,90.30
2019-04-11T08:33:04.513Z,90.30
2019-04-11T08:35:38.207Z,90.30
2019-04-11T08:38:22.697Z,90.40
2019-04-11T08:41:00.969Z,90.60
2019-04-11T08:43:35.226Z,90.60
2019-04-11T08:46:15.138Z,90.60
2019-04-11T08:49:03.554Z,90.70
2019-04-11T08:51:34.005Z,90.90
2019-04-11T08:54:21.571Z,91.00
2019-04-11T08:56:51.442Z,90.90
2019-04-11T08:59:35.618Z,90.90
2019-04-11T09:02:06.813Z,90.90
2019-04-11T09:04:48.149Z,90.80
2019-04-11T09:07:19.610Z,91.00
2019-04-11T09:10:07.420Z,91.10
2019-04-11T09:12:38.401Z,91.20
2019-04-11T09:15:19.113Z,90.90
2019-04-11T09:17:58.981Z,90.80
2019-04-11T09:20:40.039Z,90.80
2019-04-11T09:23:09.422Z,90.80
2019-04-11T09:25:57.107Z,90.70
2019-04-11T09:28:29.103Z,90.70
2019-04-11T09:31:17.051Z,90.70
2019-04-11T09:34:03.755Z,90.70
2019-04-11T09:36:43.518Z,90.70
2019-04-11T09:39:30.975Z,90.40
2019-04-11T09:42:07.825Z,90.50
2019-04-11T09:44:47.440Z,90.60
2019-04-11T09:47:38.352Z,90.60
2019-04-11T09:50:26.590Z,90.40
2019-04-11T09:52:58.003Z,90.30
2019-04-11T09:55:29.073Z,90.40
2019-04-11T09:58:02.940Z,90.40
2019-04-11T10:00:34.735Z,90.10
2019-04-11T10:03:06.638Z,90.20
2019-04-11T10:05:40.663Z,90.10
2019-04-11T10:08:27.585Z,90.10
2019-04-11T10:11:10.342Z,90.20
2019-04-11T10:13:59.548Z,90.30
2019-04-11T10:16:31.796Z,90.20
2019-04-11T10:19:15.679Z,90.40
2019-04-11T10:21:58.537Z,90.30
2019-04-11T10:24:30.428Z,90.00
2019-04-11T10:27:12.163Z,90.00
2019-04-11T10:30:00.911Z,89.60
2019-04-11T10:32:32.965Z,90.00
2019-04-11T10:35:20.237Z,89.90
2019-04-11T10:37:50.783Z,89.70
2019-04-11T10:40:34.722Z,90.10
2019-04-11T10:43:04.339Z,90.30
2019-04-11T10:45:38.577Z,90.30
2019-04-11T10:48:09.510Z,90.20
2019-04-11T10:50:58.232Z,89.90
2019-04-11T10:53:27.322Z,89.90
2019-04-11T10:56:00.036Z,89.50
2019-04-11T10:58:34.911Z,89.30
2019-04-11T11:01:07.403Z,88.80
2019-04-11T11:03:45.267Z,88.30
2019-04-11T11:06:23.889Z,87.80
2019-04-11T11:09:12.207Z,87.20
2019-04-11T11:11:46.211Z,86.30
2019-04-11T11:14:20.645Z,86.60
2019-04-11T11:16:55.013Z,87.60
2019-04-11T11:19:54.876Z,86.70
2019-04-11T11:22:23.573Z,85.90
2019-04-11T11:25:06.406Z,85.20
2019-04-11T11:27:37.427Z,84.60
2019-04-11T11:30:12.720Z,85.00
2019-04-11T11:32:43.190Z,84.60
2019-04-11T11:35:15.156Z,84.70
2019-04-11T11:37:47.095Z,84.30
2019-04-11T11:40:31.976Z,83.70
2019-04-11T11:43:10.568Z,83.70
2019-04-11T11:46:00.816Z,83.60
2019-04-11T11:48:35.397Z,84.50
2019-04-11T11:51:06.711Z,85.10
2019-04-11T11:53:38.609Z,85.70
2019-04-11T11:56:09.525Z,86.00
2019-04-11T11:58:53.001Z,86.40
2019-04-11T12:01:19.776Z,86.40
2019-04-11T12:04:06.976Z,87.50
2019-04-11T12:06:36.215Z,87.10
2019-04-11T12:09:08.250Z,87.30
2019-04-11T12:11:40.017Z,87.30
2019-04-11T12:14:11.606Z,88.10
2019-04-11T12:16:45.226Z,88.10
2019-04-11T12:19:25.309Z,89.00
2019-04-11T12:21:55.960Z,88.90
2019-04-11T12:24:44.942Z,89.90
2019-04-11T12:27:16.437Z,90.10
2019-04-11T12:30:05.894Z,90.40
2019-04-11T12:32:38.968Z,90.30
2019-04-11T12:35:27.711Z,90.60
2019-04-11T12:38:03.477Z,90.80
2019-04-11T12:40:50.012Z,90.90
2019-04-11T12:43:19.386Z,90.90
2019-04-11T12:46:06.105Z,90.90
2019-04-11T12:48:36.755Z,91.00
2019-04-11T12:51:13.808Z,91.10
2019-04-11T12:53:42.956Z,91.30
2019-04-11T12:56:13.842Z,91.60
2019-04-11T12:58:44.985Z,91.60
2019-04-11T13:01:35.060Z,91.70
2019-04-11T13:04:06.313Z,91.90
2019-04-11T13:06:53.720Z,92.00
2019-04-11T13:09:40.784Z,92.10
2019-04-11T13:12:23.408Z,92.20
2019-04-11T13:14:54.715Z,92.30
2019-04-11T13:17:28.134Z,92.30
2019-04-11T13:20:04.640Z,92.40
2019-04-11T13:22:31.621Z,92.40
2019-04-11T13:25:18.740Z,92.50
2019-04-11T13:27:49.357Z,92.60
2019-04-11T13:30:29.125Z,92.50
2019-04-11T13:32:59.774Z,92.70
2019-04-11T13:35:32.932Z,92.70
2019-04-11T13:38:06.325Z,93.00
2019-04-11T13:40:39.626Z,93.30
2019-04-11T13:43:10.474Z,93.30
2019-04-11T13:45:49.825Z,93.50
2019-04-11T13:48:37.313Z,93.50
2019-04-11T13:51:08.063Z,93.70
2019-04-11T13:53:55.579Z,94.00
2019-04-11T13:56:26.305Z,93.90
2019-04-11T13:59:06.350Z,94.10
2019-04-11T14:01:37.194Z,94.20
2019-04-11T14:04:10.976Z,94.20
2019-04-11T14:06:40.442Z,94.30
2019-04-11T14:09:11.653Z,94.20
2019-04-11T14:11:42.845Z,94.40
2019-04-11T14:14:20.287Z,94.40
2019-04-11T14:16:51.628Z,94.40
2019-04-11T14:19:22.799Z,94.20
2019-04-11T14:21:52.192Z,94.40
2019-04-11T14:24:22.850Z,94.40
2019-04-11T14:26:56.814Z,94.30
2019-04-11T14:29:31.013Z,94.40
2019-04-11T14:32:18.988Z,94.40
2019-04-11T14:34:52.562Z,94.40
2019-04-11T14:37:23.377Z,94.20
2019-04-11T14:40:00.581Z,94.30
2019-04-11T14:42:31.627Z,94.30
2019-04-11T14:45:01.072Z,94.20
2019-04-11T14:47:40.360Z,94.10
2019-04-11T14:50:11.155Z,94.00
2019-04-11T14:52:48.998Z,94.00
2019-04-11T14:55:19.651Z,93.90
2019-04-11T14:58:06.671Z,93.90
2019-04-11T15:00:37.993Z,93.70
2019-04-11T15:03:14.655Z,93.60
2019-04-11T15:05:45.395Z,93.60
2019-04-11T15:08:17.781Z,93.40
2019-04-11T15:11:05.080Z,93.30
2019-04-11T15:13:35.958Z,93.30
2019-04-11T15:16:06.762Z,93.00
2019-04-11T15:18:37.508Z,92.80
2019-04-11T15:21:17.026Z,92.80
2019-04-11T15:23:46.272Z,92.40
2019-04-11T15:26:33.460Z,92.20
2019-04-11T15:29:04.018Z,92.10
2019-04-11T15:31:39.479Z,92.30
2019-04-11T15:34:22.229Z,92.30
2019-04-11T15:36:58.003Z,92.10
2019-04-11T15:39:31.549Z,92.10
2019-04-11T15:42:02.425Z,92.30
2019-04-11T15:44:44.436Z,92.10
2019-04-11T15:47:20.141Z,92.00
2019-04-11T15:50:09.251Z,92.20
2019-04-11T15:52:40.569Z,92.10
2019-04-11T15:55:18.381Z,92.20
2019-04-11T15:57:47.856Z,92.20
2019-04-11T16:00:22.039Z,91.80
2019-04-11T16:02:58.551Z,91.70
2019-04-11T16:05:45.945Z,91.50
2019-04-11T16:08:29.209Z,91.00
2019-04-11T16:11:12.522Z,91.00
2019-04-11T16:13:43.769Z,89.90
2019-04-11T16:16:12.920Z,88.60
2019-04-11T16:19:00.192Z,89.00
2019-04-11T16:21:30.794Z,87.80
2019-04-11T16:24:16.835Z,87.10
2019-04-11T16:26:59.658Z,85.40
2019-04-11T16:29:33.282Z,84.80
2019-04-11T16:32:04.193Z,84.80
2019-04-11T16:34:48.562Z,84.50
2019-04-11T16:37:17.770Z,82.80
2019-04-11T16:40:04.015Z,81.40
2019-04-11T16:42:34.754Z,81.70
2019-04-11T16:45:24.719Z,80.40
2019-04-11T16:47:53.752Z,79.10
2019-04-11T16:50:24.412Z,80.20
2019-04-11T16:52:53.965Z,80.10
2019-04-11T16:55:23.927Z,78.60
2019-04-11T16:57:52.540Z,79.10
2019-04-11T17:00:21.297Z,78.70
2019-04-11T17:02:54.759Z,79.70
2019-04-11T17:05:21.047Z,80.70
2019-04-11T17:07:53.866Z,79.80
2019-04-11T17:10:40.756Z,79.70
2019-04-11T17:13:10.040Z,79.70
2019-04-11T17:15:38.955Z,79.90
2019-04-11T17:18:08.312Z,80.00
2019-04-11T17:20:39.687Z,77.40
2019-04-11T17:23:09.226Z,78.20
2019-04-11T17:25:38.358Z,78.50
2019-04-11T17:28:09.090Z,74.90
2019-04-11T17:30:38.385Z,70.80
2019-04-11T17:33:07.498Z,70.70
2019-04-11T17:35:36.831Z,68.90
2019-04-11T17:38:08.033Z,66.20
2019-04-11T17:40:39.400Z,66.60
2019-04-11T17:43:07.212Z,63.30
2019-04-11T17:45:38.318Z,63.10
2019-04-11T17:48:07.498Z,61.90
2019-04-11T17:50:37.232Z,59.90
2019-04-11T17:53:06.464Z,60.00
2019-04-11T17:55:36.641Z,58.20
2019-04-11T17:58:06.724Z,58.10
2019-04-11T18:00:37.845Z,57.50
2019-04-11T18:03:07.278Z,53.80
2019-04-11T18:05:37.955Z,51.80
2019-04-11T18:08:07.623Z,52.40
2019-04-11T18:10:37.049Z,51.70
2019-04-11T18:13:06.522Z,54.80
2019-04-11T18:15:35.912Z,46.60
2019-04-11T18:18:05.995Z,38.60
2019-04-11T18:20:37.085Z,41.20
2019-04-11T18:23:06.234Z,39.80
2019-04-11T18:25:35.474Z,36.50
2019-04-11T18:28:04.585Z,33.30
2019-04-11T18:30:33.501Z,31.60
2019-04-11T18:33:02.570Z,34.10
2019-04-11T18:35:32.457Z,34.50
2019-04-11T18:38:02.625Z,27.80
2019-04-11T18:40:31.856Z,25.50
2019-04-11T18:43:01.368Z,28.10
2019-04-11T18:45:30.725Z,25.60
2019-04-11T18:47:59.690Z,26.70
2019-04-11T18:50:28.974Z,26.30
2019-04-11T18:52:59.496Z,24.90
2019-04-11T18:55:29.175Z,25.90
2019-04-11T18:57:58.147Z,26.60
2019-04-11T19:00:27.567Z,25.80
2019-04-11T19:02:56.750Z,28.90
2019-04-11T19:05:29.062Z,25.80
2019-04-11T19:07:56.764Z,25.70
2019-04-11T19:10:26.227Z,25.30
2019-04-11T19:12:55.406Z,25.50
2019-04-11T19:15:24.550Z,24.70
2019-04-11T19:18:05.648Z,28.10
2019-04-11T19:20:24.395Z,28.70
2019-04-11T19:22:53.615Z,35.20
2019-04-11T19:25:22.868Z,31.10
2019-04-11T19:27:54.375Z,32.20
2019-04-11T19:30:26.467Z,29.60
2019-04-11T19:32:54.975Z,29.90
2019-04-11T19:35:24.258Z,26.60
2019-04-11T19:37:53.630Z,27.70
2019-04-11T19:40:22.825Z,27.40
2019-04-11T19:42:52.170Z,27.20
2019-04-11T19:45:21.491Z,27.10
2019-04-11T19:47:52.240Z,28.80
2019-04-11T19:50:21.650Z,22.60
2019-04-11T19:52:50.575Z,23.60
2019-04-11T19:55:23.664Z,24.90
2019-04-11T19:57:52.709Z,28.20
2019-04-11T20:00:22.058Z,28.80
2019-04-11T20:02:51.782Z,32.00
2019-04-11T20:05:21.633Z,29.90
2019-04-11T20:07:50.821Z,29.50
2019-04-11T20:10:20.319Z,36.40
2019-04-11T20:12:49.517Z,29.30
2019-04-11T20:15:18.983Z,28.00
2019-04-11T20:17:51.172Z,30.70
2019-04-11T20:20:18.468Z,32.00
2019-04-11T20:22:58.455Z,33.40
2019-04-11T20:25:18.400Z,36.30
2019-04-11T20:27:48.102Z,31.30
2019-04-11T20:30:19.505Z,31.40
2019-04-11T20:32:48.607Z,28.10
2019-04-11T20:35:28.468Z,29.50
2019-04-11T20:37:48.539Z,33.00
2019-04-11T20:40:22.008Z,32.20
2019-04-11T20:42:48.790Z,30.90
2019-04-11T20:45:18.042Z,31.00
2019-04-11T20:47:47.184Z,34.10
2019-04-11T20:50:16.338Z,31.80
2019-04-11T20:52:45.356Z,35.00
2019-04-11T20:55:14.978Z,29.80
2019-04-11T20:57:44.189Z,29.50
2019-04-11T21:00:13.726Z,29.90
2019-04-11T21:02:43.027Z,31.20
2019-04-11T21:05:12.367Z,33.30
2019-04-11T21:07:43.087Z,32.60
2019-04-11T21:10:12.998Z,32.00
2019-04-11T21:12:42.226Z,33.90
2019-04-11T21:15:11.361Z,30.70
2019-04-11T21:17:40.590Z,29.00
2019-04-11T21:20:09.899Z,29.00
2019-04-11T21:22:39.303Z,31.40
2019-04-11T21:25:08.618Z,36.50
2019-04-11T21:27:37.807Z,33.20
2019-04-11T21:30:08.026Z,32.30
2019-04-11T21:32:37.113Z,30.90
2019-04-11T21:35:06.576Z,33.40
2019-04-11T21:37:36.825Z,33.70
2019-04-11T21:40:07.534Z,35.30
2019-04-11T21:42:37.291Z,30.90
2019-04-11T21:45:07.271Z,27.80
2019-04-11T21:47:37.190Z,27.10
2019-04-11T21:50:09.547Z,26.20
2019-04-11T21:52:43.319Z,31.20
2019-04-11T21:55:13.055Z,25.60
2019-04-11T21:57:41.882Z,27.60
2019-04-11T22:00:36.781Z,25.30
2019-04-11T22:03:06.731Z,29.00
2019-04-11T22:05:36.246Z,30.10
2019-04-11T22:08:05.412Z,26.10
2019-04-11T22:10:34.469Z,30.10
2019-04-11T22:13:03.565Z,23.70
2019-04-11T22:15:33.379Z,23.60
2019-04-11T22:18:02.700Z,21.70
2019-04-11T22:20:32.190Z,22.50
2019-04-11T22:23:01.176Z,23.10
2019-04-11T22:25:30.584Z,21.10
2019-04-11T22:27:59.919Z,24.10
2019-04-11T22:30:29.208Z,22.60
2019-04-11T22:33:02.871Z,22.50
2019-04-11T22:35:32.432Z,23.00
2019-04-11T22:38:01.614Z,21.30
2019-04-11T22:40:31.959Z,19.60
2019-04-11T22:43:01.927Z,22.90
2019-04-11T22:45:31.168Z,21.10
2019-04-11T22:48:01.104Z,21.20
2019-04-11T22:50:30.462Z,17.90
2019-04-11T22:53:00.554Z,16.30
2019-04-11T22:55:29.782Z,14.20
2019-04-11T22:57:59.281Z,15.40
2019-04-11T23:00:29.789Z,17.10
2019-04-11T23:03:09.522Z,14.50
2019-04-11T23:05:39.091Z,15.10
2019-04-11T23:08:08.447Z,16.50
2019-04-11T23:10:37.533Z,15.80
2019-04-11T23:13:06.717Z,13.70
2019-04-11T23:15:36.109Z,16.30
2019-04-11T23:18:05.205Z,15.80
2019-04-11T23:20:34.642Z,14.30
2019-04-11T23:23:04.562Z,17.80
2019-04-11T23:25:34.206Z,16.50
2019-04-11T23:28:03.400Z,16.10
2019-04-11T23:30:33.112Z,15.90
2019-04-11T23:33:02.399Z,17.10
2019-04-11T23:35:31.680Z,17.00
2019-04-11T23:38:01.271Z,17.40
2019-04-11T23:40:30.675Z,18.60
2019-04-11T23:43:00.171Z,15.80
2019-04-11T23:45:30.357Z,17.20
2019-04-11T23:48:00.902Z,18.40
2019-04-11T23:50:30.365Z,18.60
2019-04-11T23:52:59.652Z,18.20
2019-04-11T23:55:30.777Z,18.20
2019-04-11T23:58:01.615Z,17.70
